sensor_id;sensor_type;location;lat;lon;timestamp;temperature;humidity
32296;DHT22;18781;51.550;5.418;2024-01-06T00:01:11;10.80;79.50
32296;DHT22;18781;51.550;5.418;2024-01-06T00:03:37;10.70;79.50
32296;DHT22;18781;51.550;5.418;2024-01-06T00:06:03;10.70;79.50
32296;DHT22;18781;51.550;5.418;2024-01-06T00:08:29;10.70;79.70
32296;DHT22;18781;51.550;5.418;2024-01-06T00:10:54;10.70;79.60
32296;DHT22;18781;51.550;5.418;2024-01-06T00:13:20;10.60;79.60
32296;DHT22;18781;51.550;5.418;2024-01-06T00:15:46;10.60;79.60
32296;DHT22;18781;51.550;5.418;2024-01-06T00:18:11;10.60;79.40
32296;DHT22;18781;51.550;5.418;2024-01-06T00:20:37;10.50;79.30
32296;DHT22;18781;51.550;5.418;2024-01-06T00:23:03;10.50;78.90
32296;DHT22;18781;51.550;5.418;2024-01-06T00:25:29;10.50;78.90
32296;DHT22;18781;51.550;5.418;2024-01-06T00:27:54;10.40;78.60
32296;DHT22;18781;51.550;5.418;2024-01-06T00:30:20;10.40;78.90
32296;DHT22;18781;51.550;5.418;2024-01-06T00:32:46;10.40;78.90
32296;DHT22;18781;51.550;5.418;2024-01-06T00:35:11;10.30;78.90
32296;DHT22;18781;51.550;5.418;2024-01-06T00:37:37;10.30;78.90
32296;DHT22;18781;51.550;5.418;2024-01-06T00:40:03;10.30;79.20
32296;DHT22;18781;51.550;5.418;2024-01-06T00:42:29;10.30;79.30
32296;DHT22;18781;51.550;5.418;2024-01-06T00:44:55;10.30;79.10
32296;DHT22;18781;51.550;5.418;2024-01-06T00:47:21;10.20;79.00
32296;DHT22;18781;51.550;5.418;2024-01-06T00:49:49;10.20;79.10
32296;DHT22;18781;51.550;5.418;2024-01-06T00:52:15;10.10;79.10
32296;DHT22;18781;51.550;5.418;2024-01-06T00:54:40;10.20;79.90
32296;DHT22;18781;51.550;5.418;2024-01-06T00:57:06;10.20;79.30
32296;DHT22;18781;51.550;5.418;2024-01-06T00:59:32;10.10;79.40
32296;DHT22;18781;51.550;5.418;2024-01-06T01:01:57;10.10;79.20
32296;DHT22;18781;51.550;5.418;2024-01-06T01:04:23;10.10;79.30
32296;DHT22;18781;51.550;5.418;2024-01-06T01:06:48;10.10;79.50
32296;DHT22;18781;51.550;5.418;2024-01-06T01:09:14;10.10;79.50
32296;DHT22;18781;51.550;5.418;2024-01-06T01:11:41;10.10;79.50
32296;DHT22;18781;51.550;5.418;2024-01-06T01:14:06;10.00;79.50
32296;DHT22;18781;51.550;5.418;2024-01-06T01:16:32;10.10;79.60
32296;DHT22;18781;51.550;5.418;2024-01-06T01:18:58;10.00;79.40
32296;DHT22;18781;51.550;5.418;2024-01-06T01:21:24;10.00;79.40
32296;DHT22;18781;51.550;5.418;2024-01-06T01:23:49;10.00;79.20
32296;DHT22;18781;51.550;5.418;2024-01-06T01:26:15;10.00;79.20
32296;DHT22;18781;51.550;5.418;2024-01-06T01:28:41;10.00;79.40
32296;DHT22;18781;51.550;5.418;2024-01-06T01:31:06;10.00;79.60
32296;DHT22;18781;51.550;5.418;2024-01-06T01:33:32;9.90;79.50
32296;DHT22;18781;51.550;5.418;2024-01-06T01:35:57;9.90;79.60
32296;DHT22;18781;51.550;5.418;2024-01-06T01:38:23;9.90;79.60
32296;DHT22;18781;51.550;5.418;2024-01-06T01:40:49;9.90;79.40
32296;DHT22;18781;51.550;5.418;2024-01-06T01:43:21;9.90;79.20
32296;DHT22;18781;51.550;5.418;2024-01-06T01:45:53;9.90;78.90
32296;DHT22;18781;51.550;5.418;2024-01-06T01:48:20;9.90;79.10
32296;DHT22;18781;51.550;5.418;2024-01-06T01:50:46;9.90;79.10
32296;DHT22;18781;51.550;5.418;2024-01-06T01:53:12;9.90;79.10
32296;DHT22;18781;51.550;5.418;2024-01-06T01:55:40;9.90;79.10
32296;DHT22;18781;51.550;5.418;2024-01-06T01:58:06;9.80;79.10
32296;DHT22;18781;51.550;5.418;2024-01-06T02:00:32;9.80;79.20
32296;DHT22;18781;51.550;5.418;2024-01-06T02:02:59;9.80;79.10
32296;DHT22;18781;51.550;5.418;2024-01-06T02:05:25;9.80;79.10
32296;DHT22;18781;51.550;5.418;2024-01-06T02:07:50;9.80;79.00
32296;DHT22;18781;51.550;5.418;2024-01-06T02:10:17;9.80;79.00
32296;DHT22;18781;51.550;5.418;2024-01-06T02:12:43;9.80;79.20
32296;DHT22;18781;51.550;5.418;2024-01-06T02:15:09;9.80;78.80
32296;DHT22;18781;51.550;5.418;2024-01-06T02:17:34;9.70;78.60
32296;DHT22;18781;51.550;5.418;2024-01-06T02:20:00;9.70;78.60
32296;DHT22;18781;51.550;5.418;2024-01-06T02:22:26;9.70;78.80
32296;DHT22;18781;51.550;5.418;2024-01-06T02:24:51;9.70;78.10
32296;DHT22;18781;51.550;5.418;2024-01-06T02:27:17;9.70;77.90
32296;DHT22;18781;51.550;5.418;2024-01-06T02:29:42;9.70;77.80
32296;DHT22;18781;51.550;5.418;2024-01-06T02:32:08;9.60;77.80
32296;DHT22;18781;51.550;5.418;2024-01-06T02:34:34;9.50;77.60
32296;DHT22;18781;51.550;5.418;2024-01-06T02:37:00;9.50;77.90
32296;DHT22;18781;51.550;5.418;2024-01-06T02:39:25;9.40;77.80
32296;DHT22;18781;51.550;5.418;2024-01-06T02:41:51;9.40;77.60
32296;DHT22;18781;51.550;5.418;2024-01-06T02:44:16;9.40;77.80
32296;DHT22;18781;51.550;5.418;2024-01-06T02:46:42;9.30;77.80
32296;DHT22;18781;51.550;5.418;2024-01-06T02:49:08;9.30;77.90
32296;DHT22;18781;51.550;5.418;2024-01-06T02:51:34;9.30;77.80
32296;DHT22;18781;51.550;5.418;2024-01-06T02:53:59;9.30;77.90
32296;DHT22;18781;51.550;5.418;2024-01-06T02:56:25;9.30;77.90
32296;DHT22;18781;51.550;5.418;2024-01-06T02:58:51;9.30;77.60
32296;DHT22;18781;51.550;5.418;2024-01-06T03:01:17;9.20;77.50
32296;DHT22;18781;51.550;5.418;2024-01-06T03:03:43;9.20;77.50
32296;DHT22;18781;51.550;5.418;2024-01-06T03:06:08;9.20;77.30
32296;DHT22;18781;51.550;5.418;2024-01-06T03:08:34;9.20;77.20
32296;DHT22;18781;51.550;5.418;2024-01-06T03:11:00;9.10;77.20
32296;DHT22;18781;51.550;5.418;2024-01-06T03:13:26;9.10;77.10
32296;DHT22;18781;51.550;5.418;2024-01-06T03:15:52;9.10;76.80
32296;DHT22;18781;51.550;5.418;2024-01-06T03:18:17;9.10;76.80
32296;DHT22;18781;51.550;5.418;2024-01-06T03:20:43;9.10;76.80
32296;DHT22;18781;51.550;5.418;2024-01-06T03:23:08;9.00;76.50
32296;DHT22;18781;51.550;5.418;2024-01-06T03:25:34;9.00;76.40
32296;DHT22;18781;51.550;5.418;2024-01-06T03:28:00;9.00;76.60
32296;DHT22;18781;51.550;5.418;2024-01-06T03:30:25;8.90;76.80
32296;DHT22;18781;51.550;5.418;2024-01-06T03:32:51;8.90;76.90
32296;DHT22;18781;51.550;5.418;2024-01-06T03:35:16;8.90;77.10
32296;DHT22;18781;51.550;5.418;2024-01-06T03:37:43;8.90;77.10
32296;DHT22;18781;51.550;5.418;2024-01-06T03:40:09;8.90;77.10
32296;DHT22;18781;51.550;5.418;2024-01-06T03:42:35;8.90;77.00
32296;DHT22;18781;51.550;5.418;2024-01-06T03:45:02;8.90;76.80
32296;DHT22;18781;51.550;5.418;2024-01-06T03:47:28;8.90;76.60
32296;DHT22;18781;51.550;5.418;2024-01-06T03:49:53;8.90;76.10
32296;DHT22;18781;51.550;5.418;2024-01-06T03:52:19;8.90;76.00
32296;DHT22;18781;51.550;5.418;2024-01-06T03:54:45;8.80;75.60
32296;DHT22;18781;51.550;5.418;2024-01-06T03:57:10;8.80;75.70
32296;DHT22;18781;51.550;5.418;2024-01-06T03:59:36;8.80;75.80
32296;DHT22;18781;51.550;5.418;2024-01-06T04:02:02;8.70;75.80
32296;DHT22;18781;51.550;5.418;2024-01-06T04:04:27;8.70;76.00
32296;DHT22;18781;51.550;5.418;2024-01-06T04:06:54;8.60;76.00
32296;DHT22;18781;51.550;5.418;2024-01-06T04:09:19;8.60;76.40
32296;DHT22;18781;51.550;5.418;2024-01-06T04:11:46;8.60;76.30
32296;DHT22;18781;51.550;5.418;2024-01-06T04:14:11;8.60;76.30
32296;DHT22;18781;51.550;5.418;2024-01-06T04:16:37;8.60;76.60
32296;DHT22;18781;51.550;5.418;2024-01-06T04:19:03;8.60;76.70
32296;DHT22;18781;51.550;5.418;2024-01-06T04:21:28;8.60;76.70
32296;DHT22;18781;51.550;5.418;2024-01-06T04:23:54;8.60;76.40
32296;DHT22;18781;51.550;5.418;2024-01-06T04:26:21;8.60;76.20
32296;DHT22;18781;51.550;5.418;2024-01-06T04:28:47;8.50;76.40
32296;DHT22;18781;51.550;5.418;2024-01-06T04:31:12;8.50;76.50
32296;DHT22;18781;51.550;5.418;2024-01-06T04:33:38;8.50;76.20
32296;DHT22;18781;51.550;5.418;2024-01-06T04:36:06;8.50;75.80
32296;DHT22;18781;51.550;5.418;2024-01-06T04:38:32;8.50;76.10
32296;DHT22;18781;51.550;5.418;2024-01-06T04:40:58;8.40;76.20
32296;DHT22;18781;51.550;5.418;2024-01-06T04:43:23;8.40;76.40
32296;DHT22;18781;51.550;5.418;2024-01-06T04:45:49;8.40;76.20
32296;DHT22;18781;51.550;5.418;2024-01-06T04:48:16;8.50;76.10
32296;DHT22;18781;51.550;5.418;2024-01-06T04:50:41;8.40;76.20
32296;DHT22;18781;51.550;5.418;2024-01-06T04:53:07;8.40;76.30
32296;DHT22;18781;51.550;5.418;2024-01-06T04:55:33;8.40;76.50
32296;DHT22;18781;51.550;5.418;2024-01-06T04:57:58;8.40;76.50
32296;DHT22;18781;51.550;5.418;2024-01-06T05:00:24;8.40;76.50
32296;DHT22;18781;51.550;5.418;2024-01-06T05:02:50;8.40;76.20
32296;DHT22;18781;51.550;5.418;2024-01-06T05:05:16;8.40;76.10
32296;DHT22;18781;51.550;5.418;2024-01-06T05:07:42;8.40;76.20
32296;DHT22;18781;51.550;5.418;2024-01-06T05:10:08;8.40;76.80
32296;DHT22;18781;51.550;5.418;2024-01-06T05:12:33;8.40;76.40
32296;DHT22;18781;51.550;5.418;2024-01-06T05:14:59;8.30;76.50
32296;DHT22;18781;51.550;5.418;2024-01-06T05:17:25;8.30;76.70
32296;DHT22;18781;51.550;5.418;2024-01-06T05:19:50;8.30;76.60
32296;DHT22;18781;51.550;5.418;2024-01-06T05:22:16;8.30;76.40
32296;DHT22;18781;51.550;5.418;2024-01-06T05:24:42;8.30;76.10
32296;DHT22;18781;51.550;5.418;2024-01-06T05:27:07;8.30;76.20
32296;DHT22;18781;51.550;5.418;2024-01-06T05:29:33;8.30;75.90
32296;DHT22;18781;51.550;5.418;2024-01-06T05:31:58;8.30;75.70
32296;DHT22;18781;51.550;5.418;2024-01-06T05:34:24;8.30;75.50
32296;DHT22;18781;51.550;5.418;2024-01-06T05:36:50;8.30;75.30
32296;DHT22;18781;51.550;5.418;2024-01-06T05:39:16;8.30;75.70
32296;DHT22;18781;51.550;5.418;2024-01-06T05:41:42;8.30;75.60
32296;DHT22;18781;51.550;5.418;2024-01-06T05:44:08;8.30;75.70
32296;DHT22;18781;51.550;5.418;2024-01-06T05:46:34;8.20;75.70
32296;DHT22;18781;51.550;5.418;2024-01-06T05:48:59;8.20;75.60
32296;DHT22;18781;51.550;5.418;2024-01-06T05:51:25;8.20;75.80
32296;DHT22;18781;51.550;5.418;2024-01-06T05:53:51;8.20;75.70
32296;DHT22;18781;51.550;5.418;2024-01-06T05:56:26;8.20;75.50
32296;DHT22;18781;51.550;5.418;2024-01-06T05:58:52;8.20;75.50
32296;DHT22;18781;51.550;5.418;2024-01-06T06:01:19;8.20;75.70
32296;DHT22;18781;51.550;5.418;2024-01-06T06:03:45;8.20;75.70
32296;DHT22;18781;51.550;5.418;2024-01-06T06:06:11;8.20;75.80
32296;DHT22;18781;51.550;5.418;2024-01-06T06:08:36;8.20;75.90
32296;DHT22;18781;51.550;5.418;2024-01-06T06:11:02;8.20;75.90
32296;DHT22;18781;51.550;5.418;2024-01-06T06:13:30;8.20;75.70
32296;DHT22;18781;51.550;5.418;2024-01-06T06:15:56;8.20;75.60
32296;DHT22;18781;51.550;5.418;2024-01-06T06:18:23;8.20;75.80
32296;DHT22;18781;51.550;5.418;2024-01-06T06:20:49;8.20;75.70
32296;DHT22;18781;51.550;5.418;2024-01-06T06:23:14;8.20;75.30
32296;DHT22;18781;51.550;5.418;2024-01-06T06:25:40;8.20;75.10
32296;DHT22;18781;51.550;5.418;2024-01-06T06:28:06;8.20;74.80
32296;DHT22;18781;51.550;5.418;2024-01-06T06:30:32;8.20;74.70
32296;DHT22;18781;51.550;5.418;2024-01-06T06:32:58;8.20;74.90
32296;DHT22;18781;51.550;5.418;2024-01-06T06:35:24;8.20;75.10
32296;DHT22;18781;51.550;5.418;2024-01-06T06:37:50;8.10;75.60
32296;DHT22;18781;51.550;5.418;2024-01-06T06:40:15;8.10;75.10
32296;DHT22;18781;51.550;5.418;2024-01-06T06:42:41;8.10;75.00
32296;DHT22;18781;51.550;5.418;2024-01-06T06:45:07;8.10;74.80
32296;DHT22;18781;51.550;5.418;2024-01-06T06:47:33;8.10;75.00
32296;DHT22;18781;51.550;5.418;2024-01-06T06:49:59;8.10;75.10
32296;DHT22;18781;51.550;5.418;2024-01-06T06:52:24;8.10;75.20
32296;DHT22;18781;51.550;5.418;2024-01-06T06:54:50;8.10;75.10
32296;DHT22;18781;51.550;5.418;2024-01-06T06:57:18;8.10;74.90
32296;DHT22;18781;51.550;5.418;2024-01-06T06:59:44;8.10;75.00
32296;DHT22;18781;51.550;5.418;2024-01-06T07:02:10;8.00;75.00
32296;DHT22;18781;51.550;5.418;2024-01-06T07:04:36;8.00;75.20
32296;DHT22;18781;51.550;5.418;2024-01-06T07:07:01;8.00;75.30
32296;DHT22;18781;51.550;5.418;2024-01-06T07:09:27;8.00;75.60
32296;DHT22;18781;51.550;5.418;2024-01-06T07:11:53;8.00;75.20
32296;DHT22;18781;51.550;5.418;2024-01-06T07:14:18;8.00;75.20
32296;DHT22;18781;51.550;5.418;2024-01-06T07:16:44;8.00;75.30
32296;DHT22;18781;51.550;5.418;2024-01-06T07:19:10;8.00;75.30
32296;DHT22;18781;51.550;5.418;2024-01-06T07:21:36;8.00;75.30
32296;DHT22;18781;51.550;5.418;2024-01-06T07:24:02;7.90;75.30
32296;DHT22;18781;51.550;5.418;2024-01-06T07:26:28;7.90;75.30
32296;DHT22;18781;51.550;5.418;2024-01-06T07:28:54;7.90;75.50
32296;DHT22;18781;51.550;5.418;2024-01-06T07:31:19;7.90;75.30
32296;DHT22;18781;51.550;5.418;2024-01-06T07:33:45;7.90;75.40
32296;DHT22;18781;51.550;5.418;2024-01-06T07:36:11;7.90;75.40
32296;DHT22;18781;51.550;5.418;2024-01-06T07:38:36;7.90;75.50
32296;DHT22;18781;51.550;5.418;2024-01-06T07:41:02;7.90;75.70
32296;DHT22;18781;51.550;5.418;2024-01-06T07:43:30;7.80;75.80
32296;DHT22;18781;51.550;5.418;2024-01-06T07:45:55;7.80;76.00
32296;DHT22;18781;51.550;5.418;2024-01-06T07:48:21;7.80;76.10
32296;DHT22;18781;51.550;5.418;2024-01-06T07:50:47;7.80;76.30
32296;DHT22;18781;51.550;5.418;2024-01-06T07:53:13;7.80;76.40
32296;DHT22;18781;51.550;5.418;2024-01-06T07:55:39;7.80;76.50
32296;DHT22;18781;51.550;5.418;2024-01-06T07:58:05;7.80;76.60
32296;DHT22;18781;51.550;5.418;2024-01-06T08:00:31;7.80;76.60
32296;DHT22;18781;51.550;5.418;2024-01-06T08:02:57;7.80;76.80
32296;DHT22;18781;51.550;5.418;2024-01-06T08:05:22;7.80;76.90
32296;DHT22;18781;51.550;5.418;2024-01-06T08:07:50;7.80;76.70
32296;DHT22;18781;51.550;5.418;2024-01-06T08:10:16;7.80;77.00
32296;DHT22;18781;51.550;5.418;2024-01-06T08:12:42;7.80;77.10
32296;DHT22;18781;51.550;5.418;2024-01-06T08:15:08;7.80;77.10
32296;DHT22;18781;51.550;5.418;2024-01-06T08:17:35;7.80;77.10
32296;DHT22;18781;51.550;5.418;2024-01-06T08:20:01;7.80;77.00
32296;DHT22;18781;51.550;5.418;2024-01-06T08:22:26;7.80;76.90
32296;DHT22;18781;51.550;5.418;2024-01-06T08:24:52;7.80;76.90
32296;DHT22;18781;51.550;5.418;2024-01-06T08:27:18;7.80;77.10
32296;DHT22;18781;51.550;5.418;2024-01-06T08:29:43;7.80;77.10
32296;DHT22;18781;51.550;5.418;2024-01-06T08:32:09;7.80;77.30
32296;DHT22;18781;51.550;5.418;2024-01-06T08:34:36;7.70;77.30
32296;DHT22;18781;51.550;5.418;2024-01-06T08:37:02;7.70;77.50
32296;DHT22;18781;51.550;5.418;2024-01-06T08:39:29;7.70;77.40
32296;DHT22;18781;51.550;5.418;2024-01-06T08:41:55;7.70;77.50
32296;DHT22;18781;51.550;5.418;2024-01-06T08:44:20;7.70;77.30
32296;DHT22;18781;51.550;5.418;2024-01-06T08:46:46;7.70;77.10
32296;DHT22;18781;51.550;5.418;2024-01-06T08:49:11;7.70;77.20
32296;DHT22;18781;51.550;5.418;2024-01-06T08:51:37;7.70;77.40
32296;DHT22;18781;51.550;5.418;2024-01-06T08:54:03;7.70;77.40
32296;DHT22;18781;51.550;5.418;2024-01-06T08:56:32;7.70;77.40
32296;DHT22;18781;51.550;5.418;2024-01-06T08:58:58;7.60;77.30
32296;DHT22;18781;51.550;5.418;2024-01-06T09:01:24;7.70;77.10
32296;DHT22;18781;51.550;5.418;2024-01-06T09:03:50;7.70;77.30
32296;DHT22;18781;51.550;5.418;2024-01-06T09:06:16;7.60;77.20
32296;DHT22;18781;51.550;5.418;2024-01-06T09:08:41;7.60;77.30
32296;DHT22;18781;51.550;5.418;2024-01-06T09:11:07;7.60;77.40
32296;DHT22;18781;51.550;5.418;2024-01-06T09:13:32;7.60;77.40
32296;DHT22;18781;51.550;5.418;2024-01-06T09:15:59;7.60;77.30
32296;DHT22;18781;51.550;5.418;2024-01-06T09:18:26;7.60;77.40
32296;DHT22;18781;51.550;5.418;2024-01-06T09:20:52;7.60;77.70
32296;DHT22;18781;51.550;5.418;2024-01-06T09:23:17;7.60;77.50
32296;DHT22;18781;51.550;5.418;2024-01-06T09:25:43;7.60;77.40
32296;DHT22;18781;51.550;5.418;2024-01-06T09:28:09;7.60;77.20
32296;DHT22;18781;51.550;5.418;2024-01-06T09:30:36;7.60;76.90
32296;DHT22;18781;51.550;5.418;2024-01-06T09:33:02;7.60;76.80
32296;DHT22;18781;51.550;5.418;2024-01-06T09:35:28;7.60;76.90
32296;DHT22;18781;51.550;5.418;2024-01-06T09:37:54;7.60;76.90
32296;DHT22;18781;51.550;5.418;2024-01-06T09:40:24;7.60;77.10
32296;DHT22;18781;51.550;5.418;2024-01-06T09:42:50;7.60;77.00
32296;DHT22;18781;51.550;5.418;2024-01-06T09:45:16;7.60;76.80
32296;DHT22;18781;51.550;5.418;2024-01-06T09:47:42;7.60;76.90
32296;DHT22;18781;51.550;5.418;2024-01-06T09:50:11;7.60;76.60
32296;DHT22;18781;51.550;5.418;2024-01-06T09:52:41;7.60;76.80
32296;DHT22;18781;51.550;5.418;2024-01-06T09:55:11;7.60;76.30
32296;DHT22;18781;51.550;5.418;2024-01-06T09:57:37;7.60;76.50
32296;DHT22;18781;51.550;5.418;2024-01-06T10:00:03;7.60;76.70
32296;DHT22;18781;51.550;5.418;2024-01-06T10:02:29;7.60;76.60
32296;DHT22;18781;51.550;5.418;2024-01-06T10:04:57;7.60;76.80
32296;DHT22;18781;51.550;5.418;2024-01-06T10:07:25;7.70;76.70
32296;DHT22;18781;51.550;5.418;2024-01-06T10:09:54;7.70;76.50
32296;DHT22;18781;51.550;5.418;2024-01-06T10:12:26;7.70;76.40
32296;DHT22;18781;51.550;5.418;2024-01-06T10:14:53;7.70;76.70
32296;DHT22;18781;51.550;5.418;2024-01-06T10:17:19;7.70;76.10
32296;DHT22;18781;51.550;5.418;2024-01-06T10:19:45;7.70;76.00
32296;DHT22;18781;51.550;5.418;2024-01-06T10:22:11;7.70;75.70
32296;DHT22;18781;51.550;5.418;2024-01-06T10:24:40;7.70;75.90
32296;DHT22;18781;51.550;5.418;2024-01-06T10:27:06;7.70;75.80
32296;DHT22;18781;51.550;5.418;2024-01-06T10:29:32;7.70;75.90
32296;DHT22;18781;51.550;5.418;2024-01-06T10:31:58;7.70;75.70
32296;DHT22;18781;51.550;5.418;2024-01-06T10:34:24;7.70;75.80
32296;DHT22;18781;51.550;5.418;2024-01-06T10:36:50;7.70;76.20
32296;DHT22;18781;51.550;5.418;2024-01-06T10:39:18;7.70;76.00
32296;DHT22;18781;51.550;5.418;2024-01-06T10:41:44;7.70;76.00
32296;DHT22;18781;51.550;5.418;2024-01-06T10:44:11;7.70;75.90
32296;DHT22;18781;51.550;5.418;2024-01-06T10:46:38;7.70;76.10
32296;DHT22;18781;51.550;5.418;2024-01-06T10:49:05;7.70;76.10
32296;DHT22;18781;51.550;5.418;2024-01-06T10:51:32;7.70;76.10
32296;DHT22;18781;51.550;5.418;2024-01-06T10:54:01;7.70;76.10
32296;DHT22;18781;51.550;5.418;2024-01-06T10:56:26;7.70;76.20
32296;DHT22;18781;51.550;5.418;2024-01-06T10:58:53;7.70;76.10
32296;DHT22;18781;51.550;5.418;2024-01-06T11:01:21;7.80;76.00
32296;DHT22;18781;51.550;5.418;2024-01-06T11:03:48;7.80;76.00
32296;DHT22;18781;51.550;5.418;2024-01-06T11:06:14;7.80;75.90
32296;DHT22;18781;51.550;5.418;2024-01-06T11:09:09;7.80;76.00
32296;DHT22;18781;51.550;5.418;2024-01-06T11:11:37;7.80;76.00
32296;DHT22;18781;51.550;5.418;2024-01-06T11:14:23;7.80;76.10
32296;DHT22;18781;51.550;5.418;2024-01-06T11:16:53;7.80;75.60
32296;DHT22;18781;51.550;5.418;2024-01-06T11:19:43;7.80;75.60
32296;DHT22;18781;51.550;5.418;2024-01-06T11:22:30;7.80;75.40
32296;DHT22;18781;51.550;5.418;2024-01-06T11:25:16;7.80;75.30
32296;DHT22;18781;51.550;5.418;2024-01-06T11:27:43;7.80;75.10
32296;DHT22;18781;51.550;5.418;2024-01-06T11:30:22;7.80;74.90
32296;DHT22;18781;51.550;5.418;2024-01-06T11:32:50;7.80;75.10
32296;DHT22;18781;51.550;5.418;2024-01-06T11:35:18;7.80;75.30
32296;DHT22;18781;51.550;5.418;2024-01-06T11:43:00;7.80;75.10
32296;DHT22;18781;51.550;5.418;2024-01-06T11:45:28;7.80;74.90
32296;DHT22;18781;51.550;5.418;2024-01-06T11:47:58;7.90;74.50
32296;DHT22;18781;51.550;5.418;2024-01-06T11:50:26;7.90;74.30
32296;DHT22;18781;51.550;5.418;2024-01-06T11:52:53;7.90;73.80
32296;DHT22;18781;51.550;5.418;2024-01-06T11:55:19;7.90;74.10
32296;DHT22;18781;51.550;5.418;2024-01-06T11:57:45;7.80;74.40
32296;DHT22;18781;51.550;5.418;2024-01-06T12:00:11;7.80;74.60
32296;DHT22;18781;51.550;5.418;2024-01-06T12:02:39;7.80;74.60
32296;DHT22;18781;51.550;5.418;2024-01-06T12:05:05;7.80;74.80
32296;DHT22;18781;51.550;5.418;2024-01-06T12:07:31;7.80;74.80
32296;DHT22;18781;51.550;5.418;2024-01-06T12:10:01;7.90;75.00
32296;DHT22;18781;51.550;5.418;2024-01-06T12:12:27;7.90;75.10
32296;DHT22;18781;51.550;5.418;2024-01-06T12:14:53;7.90;75.20
32296;DHT22;18781;51.550;5.418;2024-01-06T12:17:20;7.90;75.10
32296;DHT22;18781;51.550;5.418;2024-01-06T12:19:47;7.90;75.00
32296;DHT22;18781;51.550;5.418;2024-01-06T12:22:14;7.90;74.80
32296;DHT22;18781;51.550;5.418;2024-01-06T12:24:40;7.90;74.60
32296;DHT22;18781;51.550;5.418;2024-01-06T12:27:08;7.90;74.40
32296;DHT22;18781;51.550;5.418;2024-01-06T12:29:43;7.90;74.60
32296;DHT22;18781;51.550;5.418;2024-01-06T12:32:09;7.90;74.50
32296;DHT22;18781;51.550;5.418;2024-01-06T12:34:36;7.90;74.60
32296;DHT22;18781;51.550;5.418;2024-01-06T12:37:02;7.80;74.70
32296;DHT22;18781;51.550;5.418;2024-01-06T12:39:29;7.80;74.80
32296;DHT22;18781;51.550;5.418;2024-01-06T12:41:55;7.80;74.80
32296;DHT22;18781;51.550;5.418;2024-01-06T12:44:21;7.80;74.50
32296;DHT22;18781;51.550;5.418;2024-01-06T12:46:47;7.80;74.50
32296;DHT22;18781;51.550;5.418;2024-01-06T12:49:13;7.80;74.50
32296;DHT22;18781;51.550;5.418;2024-01-06T12:51:39;7.80;74.70
32296;DHT22;18781;51.550;5.418;2024-01-06T12:54:04;7.70;75.10
32296;DHT22;18781;51.550;5.418;2024-01-06T12:56:30;7.70;75.20
32296;DHT22;18781;51.550;5.418;2024-01-06T12:58:56;7.70;75.10
32296;DHT22;18781;51.550;5.418;2024-01-06T13:01:22;7.80;74.80
32296;DHT22;18781;51.550;5.418;2024-01-06T13:03:48;7.80;74.70
32296;DHT22;18781;51.550;5.418;2024-01-06T13:06:13;7.70;74.50
32296;DHT22;18781;51.550;5.418;2024-01-06T13:08:41;7.80;74.40
32296;DHT22;18781;51.550;5.418;2024-01-06T13:11:07;7.80;74.70
32296;DHT22;18781;51.550;5.418;2024-01-06T13:13:33;7.70;74.20
32296;DHT22;18781;51.550;5.418;2024-01-06T13:16:00;7.80;73.80
32296;DHT22;18781;51.550;5.418;2024-01-06T13:18:28;7.70;73.70
32296;DHT22;18781;51.550;5.418;2024-01-06T13:20:54;7.70;73.60
32296;DHT22;18781;51.550;5.418;2024-01-06T13:23:19;7.70;73.80
32296;DHT22;18781;51.550;5.418;2024-01-06T13:25:45;7.70;73.70
32296;DHT22;18781;51.550;5.418;2024-01-06T13:28:11;7.70;73.80
32296;DHT22;18781;51.550;5.418;2024-01-06T13:30:37;7.70;73.30
32296;DHT22;18781;51.550;5.418;2024-01-06T13:33:05;7.70;72.40
32296;DHT22;18781;51.550;5.418;2024-01-06T13:35:30;7.70;73.30
32296;DHT22;18781;51.550;5.418;2024-01-06T13:37:57;7.70;72.70
32296;DHT22;18781;51.550;5.418;2024-01-06T13:40:23;7.70;72.30
32296;DHT22;18781;51.550;5.418;2024-01-06T13:42:49;7.70;72.40
32296;DHT22;18781;51.550;5.418;2024-01-06T13:45:18;7.70;72.70
32296;DHT22;18781;51.550;5.418;2024-01-06T13:47:44;7.60;73.00
32296;DHT22;18781;51.550;5.418;2024-01-06T13:50:15;7.60;72.90
32296;DHT22;18781;51.550;5.418;2024-01-06T13:52:42;7.60;72.80
32296;DHT22;18781;51.550;5.418;2024-01-06T13:55:08;7.60;73.20
32296;DHT22;18781;51.550;5.418;2024-01-06T13:57:34;7.60;73.00
32296;DHT22;18781;51.550;5.418;2024-01-06T14:00:00;7.70;73.10
32296;DHT22;18781;51.550;5.418;2024-01-06T14:02:26;7.60;73.40
32296;DHT22;18781;51.550;5.418;2024-01-06T14:04:52;7.60;73.70
32296;DHT22;18781;51.550;5.418;2024-01-06T14:07:18;7.60;73.70
32296;DHT22;18781;51.550;5.418;2024-01-06T14:09:48;7.70;73.60
32296;DHT22;18781;51.550;5.418;2024-01-06T14:12:13;7.70;73.70
32296;DHT22;18781;51.550;5.418;2024-01-06T14:14:40;7.70;73.50
32296;DHT22;18781;51.550;5.418;2024-01-06T14:17:07;7.70;73.10
32296;DHT22;18781;51.550;5.418;2024-01-06T14:19:33;7.70;73.20
32296;DHT22;18781;51.550;5.418;2024-01-06T14:21:58;7.70;73.20
32296;DHT22;18781;51.550;5.418;2024-01-06T14:24:24;7.70;73.20
32296;DHT22;18781;51.550;5.418;2024-01-06T14:26:51;7.60;73.60
32296;DHT22;18781;51.550;5.418;2024-01-06T14:29:18;7.60;73.70
32296;DHT22;18781;51.550;5.418;2024-01-06T14:31:44;7.60;73.90
32296;DHT22;18781;51.550;5.418;2024-01-06T14:34:10;7.60;73.70
32296;DHT22;18781;51.550;5.418;2024-01-06T14:36:35;7.60;73.50
32296;DHT22;18781;51.550;5.418;2024-01-06T14:39:01;7.60;73.50
32296;DHT22;18781;51.550;5.418;2024-01-06T14:41:29;7.60;73.40
32296;DHT22;18781;51.550;5.418;2024-01-06T14:43:55;7.60;73.60
32296;DHT22;18781;51.550;5.418;2024-01-06T14:46:20;7.50;73.50
32296;DHT22;18781;51.550;5.418;2024-01-06T14:48:46;7.60;73.60
32296;DHT22;18781;51.550;5.418;2024-01-06T14:51:12;7.50;73.50
32296;DHT22;18781;51.550;5.418;2024-01-06T14:53:37;7.50;73.70
32296;DHT22;18781;51.550;5.418;2024-01-06T14:56:03;7.50;73.80
32296;DHT22;18781;51.550;5.418;2024-01-06T14:58:29;7.50;73.80
32296;DHT22;18781;51.550;5.418;2024-01-06T15:00:55;7.50;73.90
32296;DHT22;18781;51.550;5.418;2024-01-06T15:03:21;7.50;73.90
32296;DHT22;18781;51.550;5.418;2024-01-06T15:05:49;7.40;74.10
32296;DHT22;18781;51.550;5.418;2024-01-06T15:08:15;7.40;74.20
32296;DHT22;18781;51.550;5.418;2024-01-06T15:10:40;7.40;74.30
32296;DHT22;18781;51.550;5.418;2024-01-06T15:13:06;7.40;74.60
32296;DHT22;18781;51.550;5.418;2024-01-06T15:15:32;7.40;74.80
32296;DHT22;18781;51.550;5.418;2024-01-06T15:17:57;7.40;74.80
32296;DHT22;18781;51.550;5.418;2024-01-06T15:20:23;7.40;74.60
32296;DHT22;18781;51.550;5.418;2024-01-06T15:22:49;7.40;74.50
32296;DHT22;18781;51.550;5.418;2024-01-06T15:25:15;7.40;74.40
32296;DHT22;18781;51.550;5.418;2024-01-06T15:27:41;7.40;74.30
32296;DHT22;18781;51.550;5.418;2024-01-06T15:30:06;7.30;74.30
32296;DHT22;18781;51.550;5.418;2024-01-06T15:32:37;7.30;74.40
32296;DHT22;18781;51.550;5.418;2024-01-06T15:35:03;7.30;74.40
32296;DHT22;18781;51.550;5.418;2024-01-06T15:37:30;7.30;74.60
32296;DHT22;18781;51.550;5.418;2024-01-06T15:39:57;7.30;74.70
32296;DHT22;18781;51.550;5.418;2024-01-06T15:42:22;7.30;74.40
32296;DHT22;18781;51.550;5.418;2024-01-06T15:44:48;7.30;74.10